<?xml version="1.0" encoding="UTF-8" standalone="no" ?>
<gpx xmlns="http://www.topografix.com/GPX/1/1" xmlns:xsi="http://www.w3.org/2001/XMLSchema-instance" xsi:schemaLocation="http://www.topografix.com/GPX/1/1 http://www.topografix.com/GPX/1/1/gpx.xsd" version="1.1" creator="VisuGPX - https://www.visugpx.com">
  <metadata>
    <name>Macif 18 - Mardi 3 Juin 2014</name>
    <desc><![CDATA[Macif 18 - Mardi 3 Juin 2014]]></desc>
  </metadata>
  <trk>
    <name><![CDATA[Macif 18 - Mardi 3 Juin 2014_1]]></name>
    <trkseg>
      <trkpt lat="46.14466" lon="-1.16533">
        <ele>2</ele>
        <time>2014-06-03T08:36:15Z</time>
      </trkpt>
      <trkpt lat="46.14465" lon="-1.16552">
        <ele>61</ele>
        <time>2014-06-03T08:48:17Z</time>
      </trkpt>
      <trkpt lat="46.1447" lon="-1.16531">
        <ele>52</ele>
        <time>2014-06-03T08:53:21Z</time>
      </trkpt>
      <trkpt lat="46.14619" lon="-1.16752">
        <ele>28</ele>
        <time>2014-06-03T08:58:24Z</time>
      </trkpt>
      <trkpt lat="46.14735" lon="-1.1734">
        <ele>48</ele>
        <time>2014-06-03T09:03:29Z</time>
      </trkpt>
      <trkpt lat="46.14333" lon="-1.17978">
        <ele>43</ele>
        <time>2014-06-03T09:08:54Z</time>
      </trkpt>
      <trkpt lat="46.13704" lon="-1.18277">
        <ele>47</ele>
        <time>2014-06-03T09:14:19Z</time>
      </trkpt>
      <trkpt lat="46.12753" lon="-1.18165">
        <ele>43</ele>
        <time>2014-06-03T09:19:23Z</time>
      </trkpt>
      <trkpt lat="46.11708" lon="-1.18035">
        <ele>47</ele>
        <time>2014-06-03T09:24:27Z</time>
      </trkpt>
      <trkpt lat="46.10654" lon="-1.1785">
        <ele>32</ele>
        <time>2014-06-03T09:29:30Z</time>
      </trkpt>
      <trkpt lat="46.09606" lon="-1.17657">
        <ele>38</ele>
        <time>2014-06-03T09:34:34Z</time>
      </trkpt>
      <trkpt lat="46.08721" lon="-1.17467">
        <ele>47</ele>
        <time>2014-06-03T09:39:39Z</time>
      </trkpt>
      <trkpt lat="46.07822" lon="-1.17281">
        <ele>44</ele>
        <time>2014-06-03T09:44:48Z</time>
      </trkpt>
      <trkpt lat="46.06866" lon="-1.17107">
        <ele>45</ele>
        <time>2014-06-03T09:49:51Z</time>
      </trkpt>
      <trkpt lat="46.05649" lon="-1.16818">
        <ele>40</ele>
        <time>2014-06-03T09:56:55Z</time>
      </trkpt>
      <trkpt lat="46.04775" lon="-1.1642">
        <ele>33</ele>
        <time>2014-06-03T10:03:07Z</time>
      </trkpt>
      <trkpt lat="46.03943" lon="-1.16303">
        <ele>35</ele>
        <time>2014-06-03T10:08:11Z</time>
      </trkpt>
      <trkpt lat="46.03144" lon="-1.16149">
        <ele>41</ele>
        <time>2014-06-03T10:13:15Z</time>
      </trkpt>
      <trkpt lat="46.02502" lon="-1.15795">
        <ele>28</ele>
        <time>2014-06-03T10:18:19Z</time>
      </trkpt>
      <trkpt lat="46.02263" lon="-1.15472">
        <ele>39</ele>
        <time>2014-06-03T10:24:45Z</time>
      </trkpt>
      <trkpt lat="46.0246" lon="-1.15438">
        <ele>54</ele>
        <time>2014-06-03T12:37:04Z</time>
      </trkpt>
      <trkpt lat="46.02787" lon="-1.15807">
        <ele>44</ele>
        <time>2014-06-03T12:42:05Z</time>
      </trkpt>
      <trkpt lat="46.03159" lon="-1.16007">
        <ele>48</ele>
        <time>2014-06-03T12:47:06Z</time>
      </trkpt>
      <trkpt lat="46.03517" lon="-1.16155">
        <ele>46</ele>
        <time>2014-06-03T12:52:07Z</time>
      </trkpt>
      <trkpt lat="46.03915" lon="-1.16335">
        <ele>46</ele>
        <time>2014-06-03T12:57:08Z</time>
      </trkpt>
      <trkpt lat="46.04315" lon="-1.16537">
        <ele>53</ele>
        <time>2014-06-03T13:02:09Z</time>
      </trkpt>
      <trkpt lat="46.04746" lon="-1.16599">
        <ele>52</ele>
        <time>2014-06-03T13:07:10Z</time>
      </trkpt>
      <trkpt lat="46.05007" lon="-1.16814">
        <ele>51</ele>
        <time>2014-06-03T13:12:11Z</time>
      </trkpt>
      <trkpt lat="46.05324" lon="-1.16973">
        <ele>54</ele>
        <time>2014-06-03T13:17:34Z</time>
      </trkpt>
      <trkpt lat="46.05566" lon="-1.17157">
        <ele>48</ele>
        <time>2014-06-03T13:22:35Z</time>
      </trkpt>
      <trkpt lat="46.05424" lon="-1.17584">
        <ele>46</ele>
        <time>2014-06-03T13:27:36Z</time>
      </trkpt>
      <trkpt lat="46.05275" lon="-1.18009">
        <ele>47</ele>
        <time>2014-06-03T13:32:37Z</time>
      </trkpt>
      <trkpt lat="46.05013" lon="-1.18384">
        <ele>43</ele>
        <time>2014-06-03T13:37:52Z</time>
      </trkpt>
      <trkpt lat="46.04593" lon="-1.1867">
        <ele>44</ele>
        <time>2014-06-03T13:42:53Z</time>
      </trkpt>
      <trkpt lat="46.04249" lon="-1.18942">
        <ele>44</ele>
        <time>2014-06-03T13:47:54Z</time>
      </trkpt>
      <trkpt lat="46.03778" lon="-1.19391">
        <ele>52</ele>
        <time>2014-06-03T13:53:52Z</time>
      </trkpt>
      <trkpt lat="46.03687" lon="-1.19531">
        <ele>48</ele>
        <time>2014-06-03T13:59:48Z</time>
      </trkpt>
      <trkpt lat="46.04045" lon="-1.19356">
        <ele>49</ele>
        <time>2014-06-03T14:04:49Z</time>
      </trkpt>
      <trkpt lat="46.04467" lon="-1.19034">
        <ele>49</ele>
        <time>2014-06-03T14:09:50Z</time>
      </trkpt>
      <trkpt lat="46.04616" lon="-1.18986">
        <ele>54</ele>
        <time>2014-06-03T14:14:52Z</time>
      </trkpt>
      <trkpt lat="46.04224" lon="-1.19375">
        <ele>57</ele>
        <time>2014-06-03T14:19:53Z</time>
      </trkpt>
      <trkpt lat="46.03665" lon="-1.19732">
        <ele>51</ele>
        <time>2014-06-03T14:24:54Z</time>
      </trkpt>
      <trkpt lat="46.03163" lon="-1.20184">
        <ele>55</ele>
        <time>2014-06-03T14:29:55Z</time>
      </trkpt>
      <trkpt lat="46.02662" lon="-1.20846">
        <ele>56</ele>
        <time>2014-06-03T14:34:56Z</time>
      </trkpt>
      <trkpt lat="46.0219" lon="-1.21532">
        <ele>53</ele>
        <time>2014-06-03T14:39:57Z</time>
      </trkpt>
      <trkpt lat="46.01867" lon="-1.222">
        <ele>55</ele>
        <time>2014-06-03T14:44:58Z</time>
      </trkpt>
      <trkpt lat="46.0144" lon="-1.22761">
        <ele>51</ele>
        <time>2014-06-03T14:49:59Z</time>
      </trkpt>
      <trkpt lat="46.01163" lon="-1.23494">
        <ele>53</ele>
        <time>2014-06-03T14:55:00Z</time>
      </trkpt>
      <trkpt lat="46.00973" lon="-1.24254">
        <ele>47</ele>
        <time>2014-06-03T15:00:03Z</time>
      </trkpt>
      <trkpt lat="46.00636" lon="-1.24948">
        <ele>53</ele>
        <time>2014-06-03T15:05:04Z</time>
      </trkpt>
      <trkpt lat="46.00778" lon="-1.25104">
        <ele>46</ele>
        <time>2014-06-03T15:10:05Z</time>
      </trkpt>
      <trkpt lat="46.00691" lon="-1.25358">
        <ele>48</ele>
        <time>2014-06-03T15:15:06Z</time>
      </trkpt>
      <trkpt lat="46.00886" lon="-1.25586">
        <ele>50</ele>
        <time>2014-06-03T15:20:07Z</time>
      </trkpt>
      <trkpt lat="46.00807" lon="-1.25881">
        <ele>47</ele>
        <time>2014-06-03T15:25:08Z</time>
      </trkpt>
      <trkpt lat="46.01192" lon="-1.26603">
        <ele>30</ele>
        <time>2014-06-03T15:30:09Z</time>
      </trkpt>
      <trkpt lat="46.01615" lon="-1.27178">
        <ele>39</ele>
        <time>2014-06-03T15:35:10Z</time>
      </trkpt>
      <trkpt lat="46.01979" lon="-1.27853">
        <ele>27</ele>
        <time>2014-06-03T15:40:11Z</time>
      </trkpt>
      <trkpt lat="46.02156" lon="-1.28621">
        <ele>46</ele>
        <time>2014-06-03T15:45:12Z</time>
      </trkpt>
      <trkpt lat="46.02311" lon="-1.29404">
        <ele>42</ele>
        <time>2014-06-03T15:50:13Z</time>
      </trkpt>
      <trkpt lat="46.0244" lon="-1.30207">
        <ele>42</ele>
        <time>2014-06-03T15:55:14Z</time>
      </trkpt>
      <trkpt lat="46.02704" lon="-1.31201">
        <ele>42</ele>
        <time>2014-06-03T16:00:38Z</time>
      </trkpt>
      <trkpt lat="46.02985" lon="-1.31964">
        <ele>50</ele>
        <time>2014-06-03T16:05:39Z</time>
      </trkpt>
      <trkpt lat="46.03489" lon="-1.32789">
        <ele>47</ele>
        <time>2014-06-03T16:10:40Z</time>
      </trkpt>
      <trkpt lat="46.03959" lon="-1.33511">
        <ele>49</ele>
        <time>2014-06-03T16:15:41Z</time>
      </trkpt>
      <trkpt lat="46.04256" lon="-1.34441">
        <ele>50</ele>
        <time>2014-06-03T16:20:42Z</time>
      </trkpt>
      <trkpt lat="46.04361" lon="-1.35351">
        <ele>51</ele>
        <time>2014-06-03T16:25:43Z</time>
      </trkpt>
      <trkpt lat="46.04009" lon="-1.35801">
        <ele>50</ele>
        <time>2014-06-03T16:30:44Z</time>
      </trkpt>
      <trkpt lat="46.03546" lon="-1.36071">
        <ele>49</ele>
        <time>2014-06-03T16:35:50Z</time>
      </trkpt>
      <trkpt lat="46.03446" lon="-1.36694">
        <ele>51</ele>
        <time>2014-06-03T16:40:51Z</time>
      </trkpt>
      <trkpt lat="46.03588" lon="-1.37003">
        <ele>51</ele>
        <time>2014-06-03T16:45:52Z</time>
      </trkpt>
    </trkseg>
  </trk>
</gpx>